createdAt,value
2023-07-18T00:01:03.485Z,3.62
2023-07-18T00:03:33.410Z,3.72
2023-07-18T00:06:01.361Z,3.52
2023-07-18T00:08:29.019Z,3.72
2023-07-18T00:10:56.728Z,3.95
2023-07-18T00:13:25.339Z,3.80
2023-07-18T00:15:53.364Z,3.72
2023-07-18T00:18:22.153Z,3.72
2023-07-18T00:20:49.953Z,3.50
2023-07-18T00:23:17.570Z,3.60
2023-07-18T00:25:45.346Z,3.75
2023-07-18T00:28:13.322Z,3.80
2023-07-18T00:30:41.197Z,3.87
2023-07-18T00:33:08.687Z,4.30
2023-07-18T00:35:37.785Z,3.72
2023-07-18T00:38:05.769Z,2.98
2023-07-18T00:40:34.461Z,2.70
2023-07-18T00:43:02.320Z,2.98
2023-07-18T00:45:29.875Z,2.62
2023-07-18T00:47:57.526Z,3.37
2023-07-18T00:50:28.704Z,2.87
2023-07-18T00:52:56.908Z,2.85
2023-07-18T00:55:24.745Z,2.62
2023-07-18T00:57:54.306Z,2.90
2023-07-18T01:00:23.567Z,2.62
2023-07-18T01:02:52.002Z,2.72
2023-07-18T01:05:20.461Z,2.72
2023-07-18T01:07:48.656Z,3.10
2023-07-18T01:10:24.956Z,3.30
2023-07-18T01:12:59.897Z,3.40
2023-07-18T01:15:31.531Z,3.20
2023-07-18T01:18:02.351Z,3.27
2023-07-18T01:20:30.378Z,3.35
2023-07-18T01:23:01.215Z,3.37
2023-07-18T01:25:30.831Z,3.27
2023-07-18T01:28:00.750Z,3.77
2023-07-18T01:30:30.576Z,3.72
2023-07-18T01:32:58.344Z,3.58
2023-07-18T01:35:28.193Z,3.22
2023-07-18T01:37:59.334Z,4.22
2023-07-18T01:40:28.207Z,4.00
2023-07-18T01:42:58.502Z,4.25
2023-07-18T01:45:31.490Z,4.40
2023-07-18T01:48:02.938Z,4.08
2023-07-18T01:50:30.686Z,3.55
2023-07-18T01:52:59.651Z,3.37
2023-07-18T01:55:28.677Z,3.02
2023-07-18T01:57:58.392Z,2.12
2023-07-18T02:00:26.352Z,2.40
2023-07-18T02:02:55.404Z,2.05
2023-07-18T02:05:26.302Z,2.22
2023-07-18T02:07:54.913Z,2.40
2023-07-18T02:10:25.580Z,2.60
2023-07-18T02:12:57.430Z,2.08
2023-07-18T02:15:25.575Z,1.67
2023-07-18T02:17:53.491Z,1.77
2023-07-18T02:20:21.504Z,1.65
2023-07-18T02:22:49.646Z,1.90
2023-07-18T02:25:17.892Z,1.87
2023-07-18T02:27:45.747Z,2.08
2023-07-18T02:30:15.201Z,2.40
2023-07-18T02:32:44.320Z,2.15
2023-07-18T02:35:18.442Z,2.95
2023-07-18T02:37:46.146Z,3.02
2023-07-18T02:40:16.428Z,3.33
2023-07-18T02:42:44.823Z,3.80
2023-07-18T02:45:14.586Z,3.75
2023-07-18T02:47:42.374Z,4.12
2023-07-18T02:50:10.356Z,4.03
2023-07-18T02:52:39.709Z,3.58
2023-07-18T02:55:08.183Z,4.00
2023-07-18T02:57:36.560Z,3.45
2023-07-18T03:00:08.238Z,3.85
2023-07-18T03:02:36.060Z,4.72
2023-07-18T03:05:04.427Z,4.10
2023-07-18T03:07:32.087Z,6.78
2023-07-18T03:10:00.282Z,3.77
2023-07-18T03:12:28.015Z,3.20
2023-07-18T03:14:55.482Z,2.40
2023-07-18T03:17:23.925Z,2.17
2023-07-18T03:19:51.612Z,2.10
2023-07-18T03:22:20.069Z,2.27
2023-07-18T03:24:48.279Z,2.58
2023-07-18T03:27:16.009Z,2.80
2023-07-18T03:29:44.652Z,3.27
2023-07-18T03:32:13.303Z,5.72
2023-07-18T03:34:41.178Z,6.60
2023-07-18T03:37:09.795Z,5.90
2023-07-18T03:39:37.903Z,5.83
2023-07-18T03:42:06.274Z,4.12
2023-07-18T03:44:34.379Z,3.52
2023-07-18T03:47:11.192Z,3.08
2023-07-18T03:49:31.615Z,3.08
2023-07-18T03:51:59.829Z,2.50
2023-07-18T03:54:27.662Z,2.33
2023-07-18T03:56:55.770Z,3.17
2023-07-18T03:59:23.358Z,3.05
2023-07-18T04:01:51.114Z,3.10
2023-07-18T04:04:19.092Z,3.10
2023-07-18T04:06:46.755Z,2.75
2023-07-18T04:09:14.751Z,3.62
2023-07-18T04:11:44.113Z,2.80
2023-07-18T04:14:11.893Z,2.55
2023-07-18T04:16:39.809Z,2.58
2023-07-18T04:19:08.809Z,2.90
2023-07-18T04:21:36.541Z,2.92
2023-07-18T04:24:05.515Z,3.62
2023-07-18T04:26:33.314Z,3.15
2023-07-18T04:29:01.245Z,3.20
2023-07-18T04:31:28.835Z,3.12
2023-07-18T04:33:56.404Z,3.02
2023-07-18T04:36:25.681Z,3.12
2023-07-18T04:38:53.470Z,2.37
2023-07-18T04:41:21.699Z,2.75
2023-07-18T04:43:49.937Z,2.72
2023-07-18T04:46:17.503Z,2.60
2023-07-18T04:48:45.219Z,2.10
2023-07-18T04:51:13.622Z,3.65
2023-07-18T04:53:41.302Z,3.00
2023-07-18T04:56:09.309Z,2.50
2023-07-18T04:58:37.163Z,2.00
2023-07-18T05:01:05.074Z,2.05
2023-07-18T05:03:44.447Z,1.90
2023-07-18T05:06:03.267Z,2.50
2023-07-18T05:08:30.890Z,2.42
2023-07-18T05:11:04.509Z,3.40
2023-07-18T05:13:32.347Z,3.50
2023-07-18T05:16:03.168Z,1.92
2023-07-18T05:18:30.953Z,2.40
2023-07-18T05:20:59.404Z,2.30
2023-07-18T05:23:27.116Z,2.33
2023-07-18T05:25:56.983Z,2.22
2023-07-18T05:28:26.967Z,2.35
2023-07-18T05:30:54.550Z,2.22
2023-07-18T05:33:22.402Z,2.83
2023-07-18T05:35:50.073Z,1.82
2023-07-18T05:38:18.182Z,2.10
2023-07-18T05:40:45.677Z,2.35
2023-07-18T05:43:13.437Z,2.40
2023-07-18T05:46:03.377Z,2.75
2023-07-18T05:48:33.200Z,3.27
2023-07-18T05:51:01.976Z,3.22
2023-07-18T05:53:29.457Z,2.00
2023-07-18T05:55:57.084Z,1.95
2023-07-18T05:58:24.998Z,2.30
2023-07-18T06:00:52.685Z,1.90
2023-07-18T06:03:21.711Z,2.30
2023-07-18T06:05:55.974Z,2.70
2023-07-18T06:08:23.780Z,6.30
2023-07-18T06:10:57.303Z,2.42
2023-07-18T06:13:25.034Z,2.90
2023-07-18T06:15:52.948Z,2.72
2023-07-18T06:18:21.822Z,2.62
2023-07-18T06:20:50.705Z,2.83
2023-07-18T06:23:18.437Z,2.33
2023-07-18T06:25:46.332Z,2.87
2023-07-18T06:28:13.989Z,3.20
2023-07-18T06:30:41.750Z,3.00
2023-07-18T06:33:09.899Z,3.12
2023-07-18T06:35:38.299Z,2.95
2023-07-18T06:38:05.981Z,3.50
2023-07-18T06:40:33.557Z,3.17
2023-07-18T06:43:01.218Z,3.80
2023-07-18T06:45:28.891Z,3.12
2023-07-18T06:47:56.891Z,3.85
2023-07-18T06:50:25.059Z,13.78
2023-07-18T06:52:52.943Z,3.30
2023-07-18T06:55:20.921Z,3.42
2023-07-18T06:57:49.628Z,3.15
2023-07-18T07:00:20.269Z,3.10
2023-07-18T07:02:47.860Z,3.15
2023-07-18T07:05:15.779Z,3.52
2023-07-18T07:07:43.929Z,3.60
2023-07-18T07:10:11.689Z,3.55
2023-07-18T07:12:39.926Z,3.60
2023-07-18T07:15:08.374Z,3.55
2023-07-18T07:17:36.515Z,3.47
2023-07-18T07:20:14.689Z,3.35
2023-07-18T07:22:44.032Z,3.37
2023-07-18T07:25:13.593Z,3.00
2023-07-18T07:27:43.599Z,3.10
2023-07-18T07:30:18.823Z,3.55
2023-07-18T07:32:50.742Z,3.70
2023-07-18T07:35:20.656Z,3.30
2023-07-18T07:37:50.078Z,3.25
2023-07-18T07:40:19.115Z,3.83
2023-07-18T07:42:47.265Z,3.33
2023-07-18T07:45:16.780Z,3.20
2023-07-18T07:47:44.520Z,3.77
2023-07-18T07:50:13.257Z,3.50
2023-07-18T07:52:40.816Z,4.22
2023-07-18T07:55:11.040Z,3.92
2023-07-18T07:57:39.007Z,4.00
2023-07-18T08:00:08.125Z,7.00
2023-07-18T08:02:35.858Z,8.60
2023-07-18T08:05:04.081Z,6.47
2023-07-18T08:07:31.880Z,5.28
2023-07-18T08:09:59.703Z,5.10
2023-07-18T08:12:27.508Z,4.40
2023-07-18T08:14:55.124Z,6.42
2023-07-18T08:17:22.846Z,3.95
2023-07-18T08:19:50.312Z,5.67
2023-07-18T08:22:18.519Z,3.37
2023-07-18T08:24:46.091Z,3.42
2023-07-18T08:27:13.565Z,4.00
2023-07-18T08:29:42.572Z,4.08
2023-07-18T08:32:11.973Z,3.62
2023-07-18T08:34:39.581Z,4.05
2023-07-18T08:37:08.994Z,4.53
2023-07-18T08:39:37.837Z,3.42
2023-07-18T08:42:07.429Z,3.17
2023-07-18T08:44:39.089Z,3.12
2023-07-18T08:47:08.813Z,3.70
2023-07-18T08:49:40.429Z,3.52
2023-07-18T08:52:08.512Z,3.60
2023-07-18T08:54:36.161Z,4.08
2023-07-18T08:57:05.697Z,4.22
2023-07-18T08:59:33.864Z,3.65
2023-07-18T09:02:01.921Z,3.20
2023-07-18T09:04:31.923Z,3.42
2023-07-18T09:07:01.457Z,3.22
2023-07-18T09:09:29.296Z,2.95
2023-07-18T09:12:05.253Z,4.53
2023-07-18T09:14:35.242Z,3.35
2023-07-18T09:17:05.433Z,3.12
2023-07-18T09:19:49.084Z,3.20
2023-07-18T09:22:21.662Z,2.72
2023-07-18T09:24:50.652Z,3.20
2023-07-18T09:27:20.134Z,3.02
2023-07-18T09:29:49.832Z,2.90
2023-07-18T09:32:27.866Z,2.80
2023-07-18T09:35:00.378Z,3.02
2023-07-18T09:37:38.499Z,2.90
2023-07-18T09:40:07.844Z,3.00
2023-07-18T09:42:36.019Z,2.85
2023-07-18T09:47:39.369Z,2.72
2023-07-18T09:50:07.447Z,2.58
2023-07-18T09:52:39.863Z,2.92
2023-07-18T09:55:10.702Z,2.65
2023-07-18T09:57:43.535Z,2.75
2023-07-18T10:00:12.727Z,2.90
2023-07-18T10:02:41.079Z,2.85
2023-07-18T10:05:14.741Z,3.30
2023-07-18T10:07:44.158Z,2.80
2023-07-18T10:10:13.127Z,2.65
2023-07-18T10:13:00.155Z,2.90
2023-07-18T10:15:29.552Z,3.08
2023-07-18T10:18:17.703Z,2.80
2023-07-18T10:21:01.973Z,2.80
2023-07-18T10:23:42.803Z,2.70
2023-07-18T10:26:10.811Z,3.00
2023-07-18T10:28:46.892Z,2.45
2023-07-18T10:31:37.370Z,2.70
2023-07-18T10:34:16.631Z,2.65
2023-07-18T10:37:01.782Z,2.60
2023-07-18T10:39:46.849Z,2.75
2023-07-18T10:42:22.355Z,3.85
2023-07-18T10:45:04.653Z,5.00
2023-07-18T10:47:36.716Z,2.83
2023-07-18T10:50:07.212Z,2.58
2023-07-18T10:52:35.710Z,2.40
2023-07-18T10:55:06.790Z,2.92
2023-07-18T10:57:39.552Z,2.70
2023-07-18T11:00:08.731Z,2.87
2023-07-18T11:02:42.717Z,2.60
2023-07-18T11:07:46.674Z,2.83
2023-07-18T11:10:15.245Z,2.85
2023-07-18T11:12:43.865Z,2.62
2023-07-18T11:15:13.253Z,3.00
2023-07-18T11:17:42.826Z,2.62
2023-07-18T11:20:12.567Z,2.58
2023-07-18T11:22:41.160Z,2.77
2023-07-18T11:25:11.884Z,2.12
2023-07-18T11:27:39.913Z,2.70
2023-07-18T11:30:12.663Z,3.08
2023-07-18T11:32:45.986Z,2.60
2023-07-18T11:35:21.033Z,2.42
2023-07-18T11:37:53.193Z,2.80
2023-07-18T11:40:26.573Z,2.90
2023-07-18T11:42:58.662Z,2.47
2023-07-18T11:45:28.469Z,3.00
2023-07-18T11:47:59.930Z,2.50
2023-07-18T11:50:30.926Z,2.87
2023-07-18T11:52:59.811Z,3.52
2023-07-18T11:55:28.011Z,2.75
2023-07-18T11:57:56.423Z,2.60
2023-07-18T12:00:24.221Z,2.60
2023-07-18T12:02:52.971Z,2.40
2023-07-18T12:05:21.616Z,2.45
2023-07-18T12:07:50.272Z,2.50
2023-07-18T12:10:19.304Z,2.55
2023-07-18T12:12:47.388Z,2.42
2023-07-18T12:15:14.827Z,2.50
2023-07-18T12:17:42.561Z,2.52
2023-07-18T12:20:11.892Z,2.40
2023-07-18T12:22:39.317Z,2.83
2023-07-18T12:25:08.106Z,2.40
2023-07-18T12:27:36.004Z,2.35
2023-07-18T12:30:05.165Z,2.45
2023-07-18T12:32:32.966Z,2.45
2023-07-18T12:35:00.480Z,3.33
2023-07-18T12:37:28.132Z,2.40
2023-07-18T12:39:55.610Z,2.75
2023-07-18T12:42:23.534Z,2.58
2023-07-18T12:44:52.253Z,3.00
2023-07-18T12:47:19.937Z,2.85
2023-07-18T12:52:16.641Z,2.60
2023-07-18T12:54:44.532Z,2.62
2023-07-18T12:57:12.476Z,2.85
2023-07-18T12:59:42.425Z,2.98
2023-07-18T13:02:13.881Z,2.80
2023-07-18T13:04:42.569Z,3.30
2023-07-18T13:07:10.560Z,2.83
2023-07-18T13:09:39.395Z,2.83
2023-07-18T13:12:08.592Z,2.50
2023-07-18T13:14:36.598Z,2.75
2023-07-18T13:17:04.701Z,2.75
2023-07-18T13:19:32.513Z,2.77
2023-07-18T13:22:00.406Z,2.70
2023-07-18T13:24:28.208Z,2.60
2023-07-18T13:26:56.174Z,2.87
2023-07-18T13:29:24.283Z,2.83
2023-07-18T13:31:53.969Z,2.62
2023-07-18T13:34:23.266Z,2.55
2023-07-18T13:36:53.525Z,2.98
2023-07-18T13:39:21.643Z,2.60
2023-07-18T13:41:49.200Z,2.45
2023-07-18T13:44:17.057Z,2.83
2023-07-18T13:46:45.417Z,2.60
2023-07-18T13:49:12.897Z,2.60
2023-07-18T13:51:40.802Z,2.80
2023-07-18T13:54:08.617Z,2.62
2023-07-18T13:56:36.825Z,2.45
2023-07-18T13:59:04.609Z,2.75
2023-07-18T14:01:32.667Z,3.40
2023-07-18T14:04:01.401Z,2.62
2023-07-18T14:06:29.459Z,2.52
2023-07-18T14:08:58.378Z,3.10
2023-07-18T14:11:28.230Z,2.35
2023-07-18T14:13:55.715Z,3.08
2023-07-18T14:16:23.506Z,2.70
2023-07-18T14:18:52.103Z,2.50
2023-07-18T14:21:19.971Z,2.42
2023-07-18T14:23:47.603Z,2.50
2023-07-18T14:26:15.526Z,2.20
2023-07-18T14:28:43.375Z,2.87
2023-07-18T14:31:11.191Z,2.40
2023-07-18T14:33:45.394Z,2.50
2023-07-18T14:36:08.208Z,2.40
2023-07-18T14:38:36.106Z,2.33
2023-07-18T14:41:04.009Z,2.20
2023-07-18T14:43:34.024Z,3.40
2023-07-18T14:46:03.538Z,2.85
2023-07-18T14:48:31.393Z,2.40
2023-07-18T14:50:59.505Z,2.60
2023-07-18T14:53:27.011Z,2.50
2023-07-18T14:55:54.757Z,2.60
2023-07-18T14:58:22.428Z,3.25
2023-07-18T15:00:51.326Z,2.77
2023-07-18T15:03:19.006Z,2.55
2023-07-18T15:05:46.885Z,2.80
2023-07-18T15:08:14.775Z,2.22
2023-07-18T15:10:42.474Z,2.75
2023-07-18T15:13:10.080Z,2.37
2023-07-18T15:15:38.766Z,3.62
2023-07-18T15:18:07.436Z,3.40
2023-07-18T15:20:35.291Z,2.67
2023-07-18T15:23:04.010Z,2.72
2023-07-18T15:25:32.663Z,3.00
2023-07-18T15:28:00.394Z,2.92
2023-07-18T15:30:28.223Z,2.50
2023-07-18T15:32:55.745Z,2.20
2023-07-18T15:35:23.284Z,2.67
2023-07-18T15:37:51.068Z,2.50
2023-07-18T15:40:18.991Z,2.50
2023-07-18T15:42:46.591Z,2.42
2023-07-18T15:45:14.915Z,2.58
2023-07-18T15:47:45.074Z,2.47
2023-07-18T15:50:15.966Z,2.35
2023-07-18T15:52:47.330Z,2.80
2023-07-18T15:55:15.063Z,2.77
2023-07-18T15:57:43.179Z,2.40
2023-07-18T16:00:14.765Z,3.37
2023-07-18T16:02:43.188Z,2.65
2023-07-18T16:05:14.242Z,2.50
2023-07-18T16:07:41.939Z,2.50
2023-07-18T16:10:10.675Z,2.67
2023-07-18T16:12:38.408Z,2.37
2023-07-18T16:15:07.393Z,2.55
2023-07-18T16:17:34.918Z,3.15
2023-07-18T16:20:04.800Z,2.55
2023-07-18T16:22:32.517Z,2.65
2023-07-18T16:25:00.647Z,2.87
2023-07-18T16:27:28.154Z,2.60
2023-07-18T16:29:55.908Z,2.98
2023-07-18T16:32:26.829Z,2.75
2023-07-18T16:34:53.103Z,2.45
2023-07-18T16:37:22.207Z,2.37
2023-07-18T16:39:56.246Z,2.67
2023-07-18T16:42:24.675Z,3.02
2023-07-18T16:44:52.797Z,2.60
2023-07-18T16:47:20.982Z,5.25
2023-07-18T16:49:51.108Z,3.40
2023-07-18T16:52:20.439Z,3.90
2023-07-18T16:54:48.165Z,4.70
2023-07-18T16:57:17.088Z,4.00
2023-07-18T16:59:44.901Z,3.90
2023-07-18T17:02:12.779Z,3.15
2023-07-18T17:04:40.547Z,2.80
2023-07-18T17:07:08.478Z,3.10
2023-07-18T17:09:35.967Z,2.95
2023-07-18T17:12:04.907Z,3.30
2023-07-18T17:14:33.373Z,3.40
2023-07-18T17:17:01.802Z,3.37
2023-07-18T17:19:33.094Z,3.42
2023-07-18T17:22:05.692Z,3.17
2023-07-18T17:24:33.676Z,3.60
2023-07-18T17:27:03.104Z,3.65
2023-07-18T17:29:30.659Z,3.25
2023-07-18T17:32:01.155Z,3.27
2023-07-18T17:34:29.269Z,3.35
2023-07-18T17:37:00.903Z,3.40
2023-07-18T17:39:34.178Z,3.72
2023-07-18T17:42:05.153Z,4.53
2023-07-18T17:44:34.008Z,4.40
2023-07-18T17:47:01.715Z,4.50
2023-07-18T17:49:29.772Z,4.67
2023-07-18T17:51:57.577Z,4.53
2023-07-18T17:54:25.625Z,4.60
2023-07-18T17:56:53.533Z,4.72
2023-07-18T17:59:21.346Z,5.03
2023-07-18T18:01:49.033Z,6.17
2023-07-18T18:04:17.771Z,6.17
2023-07-18T18:06:47.796Z,5.53
2023-07-18T18:09:17.165Z,6.25
2023-07-18T18:11:44.674Z,3.90
2023-07-18T18:14:12.058Z,4.40
2023-07-18T18:16:40.144Z,4.45
2023-07-18T18:19:08.617Z,4.50
2023-07-18T18:21:36.630Z,3.98
2023-07-18T18:24:07.456Z,5.28
2023-07-18T18:26:36.500Z,4.10
2023-07-18T18:29:11.383Z,4.65
2023-07-18T18:31:39.823Z,4.80
2023-07-18T18:34:08.974Z,4.80
2023-07-18T18:36:39.412Z,4.00
2023-07-18T18:39:13.786Z,3.80
2023-07-18T18:41:44.698Z,3.90
2023-07-18T18:44:12.779Z,3.87
2023-07-18T18:46:45.990Z,3.77
2023-07-18T18:49:25.966Z,4.00
2023-07-18T18:51:45.790Z,3.60
2023-07-18T18:54:13.667Z,4.35
2023-07-18T18:56:41.378Z,4.70
2023-07-18T18:59:08.836Z,5.67
2023-07-18T19:01:38.569Z,6.00
2023-07-18T19:04:06.276Z,6.03
2023-07-18T19:06:34.009Z,6.90
2023-07-18T19:09:03.646Z,5.50
2023-07-18T19:11:31.183Z,4.90
2023-07-18T19:14:00.529Z,5.35
2023-07-18T19:16:38.891Z,4.92
2023-07-18T19:18:57.885Z,5.30
2023-07-18T19:21:29.901Z,4.85
2023-07-18T19:23:58.742Z,4.75
2023-07-18T19:26:27.855Z,4.75
2023-07-18T19:28:55.802Z,4.90
2023-07-18T19:31:23.711Z,4.58
2023-07-18T19:33:58.537Z,5.60
2023-07-18T19:36:27.637Z,5.05
2023-07-18T19:38:55.606Z,4.90
2023-07-18T19:41:24.754Z,4.47
2023-07-18T19:44:00.267Z,4.85
2023-07-18T19:46:30.233Z,4.80
2023-07-18T19:48:58.405Z,5.28
2023-07-18T19:51:26.517Z,5.15
2023-07-18T19:53:54.516Z,4.37
2023-07-18T19:56:22.551Z,6.20
2023-07-18T19:58:51.613Z,4.62
2023-07-18T20:01:22.925Z,4.60
2023-07-18T20:03:59.207Z,5.37
2023-07-18T20:06:20.800Z,5.95
2023-07-18T20:08:48.697Z,5.75
2023-07-18T20:11:16.291Z,5.75
2023-07-18T20:13:44.245Z,6.22
2023-07-18T20:16:12.322Z,6.30
2023-07-18T20:18:40.586Z,6.42
2023-07-18T20:21:08.432Z,6.53
2023-07-18T20:23:36.402Z,6.50
2023-07-18T20:26:03.977Z,6.78
2023-07-18T20:28:32.324Z,7.17
2023-07-18T20:31:00.184Z,6.90
2023-07-18T20:33:28.000Z,7.10
2023-07-18T20:35:55.890Z,6.87
2023-07-18T20:38:23.634Z,7.10
2023-07-18T20:40:51.585Z,6.95
2023-07-18T20:43:20.160Z,6.95
2023-07-18T20:46:02.185Z,6.72
2023-07-18T20:48:32.966Z,6.72
2023-07-18T20:51:00.710Z,6.70
2023-07-18T20:53:30.218Z,7.10
2023-07-18T20:55:58.188Z,6.75
2023-07-18T20:58:25.963Z,6.87
2023-07-18T21:00:53.565Z,6.35
2023-07-18T21:03:21.475Z,6.53
2023-07-18T21:05:51.623Z,5.85
2023-07-18T21:08:19.178Z,6.45
2023-07-18T21:10:47.018Z,5.90
2023-07-18T21:13:14.666Z,6.35
2023-07-18T21:15:42.362Z,6.92
2023-07-18T21:18:09.959Z,6.28
2023-07-18T21:20:37.763Z,5.67
2023-07-18T21:23:05.667Z,5.78
2023-07-18T21:25:33.228Z,5.80
2023-07-18T21:28:00.917Z,5.75
2023-07-18T21:30:28.516Z,5.97
2023-07-18T21:32:56.313Z,6.17
2023-07-18T21:35:24.193Z,6.03
2023-07-18T21:37:51.970Z,5.30
2023-07-18T21:40:19.800Z,5.35
2023-07-18T21:42:50.730Z,5.45
2023-07-18T21:45:18.771Z,6.03
2023-07-18T21:47:47.215Z,5.53
2023-07-18T21:50:15.549Z,5.62
2023-07-18T21:52:44.272Z,5.33
2023-07-18T21:55:12.104Z,5.35
2023-07-18T21:57:40.275Z,5.25
2023-07-18T22:00:09.138Z,5.20
2023-07-18T22:02:38.863Z,5.03
2023-07-18T22:05:07.294Z,5.35
2023-07-18T22:07:34.967Z,4.80
2023-07-18T22:10:04.665Z,5.12
2023-07-18T22:12:32.280Z,5.15
2023-07-18T22:15:00.581Z,4.78
2023-07-18T22:17:29.946Z,5.30
2023-07-18T22:19:57.630Z,4.90
2023-07-18T22:22:25.371Z,4.42
2023-07-18T22:24:52.918Z,4.92
2023-07-18T22:27:20.463Z,5.20
2023-07-18T22:29:48.302Z,5.03
2023-07-18T22:32:16.165Z,5.45
2023-07-18T22:34:44.714Z,5.30
2023-07-18T22:37:12.241Z,5.28
2023-07-18T22:39:41.953Z,5.17
2023-07-18T22:42:20.918Z,5.17
2023-07-18T22:44:49.677Z,5.10
2023-07-18T22:47:17.891Z,5.08
2023-07-18T22:49:46.527Z,4.92
2023-07-18T22:52:19.769Z,4.72
2023-07-18T22:54:50.163Z,4.75
2023-07-18T22:57:18.206Z,4.60
2023-07-18T22:59:47.651Z,5.33
2023-07-18T23:02:16.010Z,4.95
2023-07-18T23:04:43.803Z,4.50
2023-07-18T23:07:11.594Z,5.12
2023-07-18T23:09:39.610Z,4.92
2023-07-18T23:12:08.548Z,4.40
2023-07-18T23:14:37.992Z,4.87
2023-07-18T23:17:05.778Z,4.65
2023-07-18T23:19:33.439Z,4.45
2023-07-18T23:22:01.236Z,4.95
2023-07-18T23:24:28.897Z,4.60
2023-07-18T23:26:56.544Z,4.95
2023-07-18T23:29:24.621Z,4.40
2023-07-18T23:31:52.065Z,5.65
2023-07-18T23:34:19.604Z,6.03
2023-07-18T23:36:47.482Z,5.70
2023-07-18T23:39:15.040Z,5.85
2023-07-18T23:41:42.761Z,6.05
2023-07-18T23:44:10.379Z,5.30
2023-07-18T23:46:38.379Z,4.80
2023-07-18T23:49:05.938Z,4.70
2023-07-18T23:51:33.907Z,4.87
2023-07-18T23:54:01.520Z,5.03
2023-07-18T23:56:29.377Z,4.95
2023-07-18T23:58:57.128Z,5.10
